Time,TemperatureF,DewpointF,PressureIn,WindDirection,WindDirectionDegrees,WindSpeedMPH,WindSpeedGustMPH,Humidity,HourlyPrecipIn,Conditions,Clouds,dailyrainin,SoftwareType,DateUTC
2013-05-06 00:12:00,51.0,36.0,30.04,SE,124,0.0,0.0,56,0.00,,,0.00,weatherlink.com 1.10,2013-05-06 04:12:00,
2013-05-06 00:27:00,51.5,38.0,30.04,SE,124,0.0,0.0,60,0.00,,,0.00,weatherlink.com 1.10,2013-05-06 04:27:00,
2013-05-06 00:42:00,51.1,39.0,30.04,SE,124,0.0,0.0,63,0.00,,,0.00,weatherlink.com 1.10,2013-05-06 04:42:00,
2013-05-06 00:57:00,51.0,40.0,30.04,SE,124,0.0,0.0,65,0.00,,,0.00,weatherlink.com 1.10,2013-05-06 04:57:00,
2013-05-06 01:12:00,51.0,37.0,30.04,SE,124,0.0,0.0,59,0.00,,,0.00,weatherlink.com 1.10,2013-05-06 05:12:00,
2013-05-06 01:27:00,51.7,39.0,30.03,SE,124,0.0,0.0,63,0.00,,,0.00,weatherlink.com 1.10,2013-05-06 05:27:00,
2013-05-06 01:42:00,51.4,39.0,30.03,SE,124,0.0,0.0,63,0.00,,,0.00,weatherlink.com 1.10,2013-05-06 05:42:00,
2013-05-06 01:57:00,51.2,39.0,30.03,SE,124,0.0,0.0,63,0.00,,,0.00,weatherlink.com 1.10,2013-05-06 05:57:00,
2013-05-06 02:13:00,51.1,39.0,30.03,SE,124,0.0,0.0,64,0.00,,,0.00,weatherlink.com 1.10,2013-05-06 06:13:00,
2013-05-06 02:28:00,50.9,40.0,30.02,SE,124,0.0,0.0,66,0.00,,,0.00,weatherlink.com 1.10,2013-05-06 06:28:00,
2013-05-06 02:43:00,50.4,40.0,30.02,SE,124,0.0,0.0,68,0.00,,,0.00,weatherlink.com 1.10,2013-05-06 06:43:00,
2013-05-06 02:58:00,50.1,40.0,30.02,SE,124,0.0,0.0,68,0.00,,,0.00,weatherlink.com 1.10,2013-05-06 06:58:00,
2013-05-06 03:13:00,49.9,39.0,30.02,SE,124,0.0,0.0,67,0.00,,,0.00,weatherlink.com 1.10,2013-05-06 07:13:00,
2013-05-06 03:28:00,49.8,39.0,30.01,SE,124,0.0,0.0,67,0.00,,,0.00,weatherlink.com 1.10,2013-05-06 07:28:00,
2013-05-06 03:43:00,49.9,38.0,30.01,SE,133,0.0,0.0,65,0.00,,,0.00,weatherlink.com 1.10,2013-05-06 07:43:00,
2013-05-06 03:57:00,49.7,39.0,30.01,SE,132,0.0,0.0,66,0.00,,,0.00,weatherlink.com 1.10,2013-05-06 07:57:00,
2013-05-06 04:12:00,50.3,39.0,30.01,SE,131,0.0,0.0,65,0.00,,,0.00,weatherlink.com 1.10,2013-05-06 08:12:00,
2013-05-06 04:27:00,50.3,39.0,30.01,SE,131,0.0,0.0,65,0.00,,,0.00,weatherlink.com 1.10,2013-05-06 08:27:00,
2013-05-06 04:42:00,50.5,39.0,30.01,SE,131,0.0,0.0,64,0.00,,,0.00,weatherlink.com 1.10,2013-05-06 08:42:00,
2013-05-06 04:57:00,50.3,39.0,30.01,SE,131,0.0,0.0,65,0.00,,,0.00,weatherlink.com 1.10,2013-05-06 08:57:00,
2013-05-06 05:12:00,50.1,39.0,30.01,SE,138,0.0,1.0,66,0.00,,,0.00,weatherlink.com 1.10,2013-05-06 09:12:00,
2013-05-06 05:27:00,50.1,39.0,30.01,West,277,0.0,1.0,66,0.00,,,0.00,weatherlink.com 1.10,2013-05-06 09:27:00,
2013-05-06 05:42:00,49.7,39.0,30.01,West,276,0.0,0.0,68,0.00,,,0.00,weatherlink.com 1.10,2013-05-06 09:42:00,
2013-05-06 05:57:00,49.6,39.0,30.01,West,275,0.0,0.0,68,0.00,,,0.00,weatherlink.com 1.10,2013-05-06 09:57:00,
2013-05-06 06:12:00,49.5,39.0,30.01,West,276,0.0,0.0,68,0.00,,,0.00,weatherlink.com 1.10,2013-05-06 10:12:00,
2013-05-06 06:27:00,49.3,40.0,30.02,West,276,0.0,1.0,70,0.00,,,0.00,weatherlink.com 1.10,2013-05-06 10:27:00,
2013-05-06 06:42:00,49.3,39.0,30.02,West,276,0.0,0.0,69,0.00,,,0.00,weatherlink.com 1.10,2013-05-06 10:42:00,
2013-05-06 06:57:00,50.1,40.0,30.02,West,276,0.0,0.0,69,0.00,,,0.00,weatherlink.com 1.10,2013-05-06 10:57:00,
2013-05-06 07:12:00,51.4,41.0,30.03,NW,314,0.0,1.0,68,0.00,,,0.00,weatherlink.com 1.10,2013-05-06 11:12:00,
2013-05-06 07:27:00,52.5,41.0,30.04,NNW,329,0.0,1.0,66,0.00,,,0.00,weatherlink.com 1.10,2013-05-06 11:27:00,
2013-05-06 07:43:00,53.5,42.0,30.04,West,281,0.0,4.0,66,0.00,,,0.00,weatherlink.com 1.10,2013-05-06 11:43:00,
2013-05-06 07:58:00,54.2,41.0,30.04,NNW,342,0.0,1.0,62,0.00,,,0.00,weatherlink.com 1.10,2013-05-06 11:58:00,
2013-05-06 08:13:00,54.9,42.0,30.04,WNW,295,0.0,2.0,62,0.00,,,0.00,weatherlink.com 1.10,2013-05-06 12:13:00,
2013-05-06 08:28:00,55.5,41.0,30.05,WNW,294,0.0,1.0,59,0.00,,,0.00,weatherlink.com 1.10,2013-05-06 12:28:00,
2013-05-06 08:43:00,56.1,42.0,30.05,WSW,240,0.0,3.0,59,0.00,,,0.00,weatherlink.com 1.10,2013-05-06 12:43:00,
2013-05-06 08:58:00,56.9,42.0,30.05,WNW,288,1.0,2.0,58,0.00,,,0.00,weatherlink.com 1.10,2013-05-06 12:58:00,
2013-05-06 09:13:00,57.6,41.0,30.06,South,176,1.0,3.0,55,0.00,,,0.00,weatherlink.com 1.10,2013-05-06 13:13:00,
2013-05-06 09:28:00,58.6,42.0,30.06,SSW,210,0.0,3.0,54,0.00,,,0.00,weatherlink.com 1.10,2013-05-06 13:28:00,
2013-05-06 09:43:00,59.6,43.0,30.06,WSW,242,3.0,3.0,54,0.00,,,0.00,weatherlink.com 1.10,2013-05-06 13:43:00,
2013-05-06 09:58:00,61.1,44.0,30.06,SSE,157,0.0,4.0,54,0.00,,,0.00,weatherlink.com 1.10,2013-05-06 13:58:00,
2013-05-06 10:13:00,62.5,42.0,30.06,NNE,13,0.0,3.0,48,0.00,,,0.00,weatherlink.com 1.10,2013-05-06 14:13:00,
2013-05-06 10:28:00,63.8,43.0,30.06,ENE,71,1.0,4.0,47,0.00,,,0.00,weatherlink.com 1.10,2013-05-06 14:28:00,
2013-05-06 10:43:00,65.5,41.0,30.06,SSE,149,0.0,2.0,41,0.00,,,0.00,weatherlink.com 1.10,2013-05-06 14:43:00,
2013-05-06 10:58:00,66.9,42.0,30.06,SE,131,1.0,4.0,40,0.00,,,0.00,weatherlink.com 1.10,2013-05-06 14:58:00,
2013-05-06 11:13:00,67.1,41.0,30.06,ENE,74,1.0,5.0,39,0.00,,,0.00,weatherlink.com 1.10,2013-05-06 15:13:00,
2013-05-06 11:29:00,68.1,41.0,30.06,SE,146,3.0,6.0,37,0.00,,,0.00,weatherlink.com 1.10,2013-05-06 15:29:00,
2013-05-06 11:44:00,68.0,40.0,30.06,SSW,207,4.0,6.0,36,0.00,,,0.00,weatherlink.com 1.10,2013-05-06 15:44:00,
2013-05-06 11:59:00,68.4,42.0,30.05,NE,46,3.0,4.0,39,0.00,,,0.00,weatherlink.com 1.10,2013-05-06 15:59:00,
2013-05-06 12:14:00,68.9,41.0,30.05,SSE,152,1.0,3.0,37,0.00,,,0.00,weatherlink.com 1.10,2013-05-06 16:14:00,
2013-05-06 12:29:00,70.1,40.0,30.05,ESE,118,0.0,3.0,34,0.00,,,0.00,weatherlink.com 1.10,2013-05-06 16:29:00,
2013-05-06 12:44:00,71.4,38.0,30.04,NW,321,2.0,4.0,30,0.00,,,0.00,weatherlink.com 1.10,2013-05-06 16:44:00,
2013-05-06 12:59:00,73.1,37.0,30.04,East,101,2.0,5.0,27,0.00,,,0.00,weatherlink.com 1.10,2013-05-06 16:59:00,
2013-05-06 13:14:00,74.2,39.0,30.03,NNW,341,2.0,7.0,28,0.00,,,0.00,weatherlink.com 1.10,2013-05-06 17:14:00,
2013-05-06 13:30:00,74.3,32.0,30.02,SW,214,1.0,6.0,21,0.00,,,0.00,weatherlink.com 1.10,2013-05-06 17:30:00,
2013-05-06 13:44:00,74.7,34.0,30.02,NE,56,1.0,3.0,23,0.00,,,0.00,weatherlink.com 1.10,2013-05-06 17:44:00,
2013-05-06 13:59:00,74.5,30.0,30.02,WNW,283,2.0,4.0,19,0.00,,,0.00,weatherlink.com 1.10,2013-05-06 17:59:00,
2013-05-06 14:14:00,75.7,36.0,30.02,SE,141,2.0,3.0,24,0.00,,,0.00,weatherlink.com 1.10,2013-05-06 18:14:00,
2013-05-06 14:29:00,76.3,31.0,30.02,ESE,113,1.0,5.0,19,0.00,,,0.00,weatherlink.com 1.10,2013-05-06 18:29:00,
2013-05-06 14:44:00,76.4,32.0,30.01,SW,221,4.0,5.0,20,0.00,,,0.00,weatherlink.com 1.10,2013-05-06 18:44:00,
2013-05-06 15:00:00,75.4,33.0,30.01,South,171,3.0,7.0,21,0.00,,,0.00,weatherlink.com 1.10,2013-05-06 19:00:00,
2013-05-06 15:15:00,75.9,37.0,30.00,WNW,298,0.0,10.0,24,0.00,,,0.00,weatherlink.com 1.10,2013-05-06 19:15:00,
2013-05-06 15:29:00,76.2,32.0,30.00,SW,224,2.0,4.0,20,0.00,,,0.00,weatherlink.com 1.10,2013-05-06 19:29:00,
2013-05-06 15:44:00,76.7,33.0,29.99,SW,219,1.0,6.0,20,0.00,,,0.00,weatherlink.com 1.10,2013-05-06 19:44:00,
2013-05-06 15:59:00,77.1,34.0,29.99,ENE,71,2.0,9.0,21,0.00,,,0.00,weatherlink.com 1.10,2013-05-06 19:59:00,
2013-05-06 16:14:00,77.5,37.0,29.99,NNE,15,0.0,6.0,23,0.00,,,0.00,weatherlink.com 1.10,2013-05-06 20:14:00,
2013-05-06 16:30:00,77.3,38.0,29.98,NE,47,1.0,9.0,24,0.00,,,0.00,weatherlink.com 1.10,2013-05-06 20:30:00,
2013-05-06 17:00:00,77.8,40.0,29.97,NW,316,3.0,3.0,26,0.00,,,0.00,weatherlink.com 1.10,2013-05-06 21:00:00,
2013-05-06 17:15:00,77.6,39.0,29.97,SE,127,2.0,4.0,25,0.00,,,0.00,weatherlink.com 1.10,2013-05-06 21:15:00,
2013-05-06 17:29:00,77.4,41.0,29.97,WSW,253,2.0,6.0,27,0.00,,,0.00,weatherlink.com 1.10,2013-05-06 21:29:00,
2013-05-06 17:44:00,76.3,44.0,29.97,ENE,58,1.0,3.0,32,0.00,,,0.00,weatherlink.com 1.10,2013-05-06 21:44:00,
2013-05-06 17:59:00,76.1,41.0,29.96,NNE,20,4.0,8.0,28,0.00,,,0.00,weatherlink.com 1.10,2013-05-06 21:59:00,
2013-05-06 18:15:00,75.4,42.0,29.97,NNE,21,0.0,4.0,30,0.00,,,0.00,weatherlink.com 1.10,2013-05-06 22:15:00,
2013-05-06 18:30:00,75.4,42.0,29.97,WNW,301,1.0,2.0,30,0.00,,,0.00,weatherlink.com 1.10,2013-05-06 22:30:00,
2013-05-06 18:45:00,76.2,43.0,29.96,WNW,293,0.0,2.0,31,0.00,,,0.00,weatherlink.com 1.10,2013-05-06 22:45:00,
2013-05-06 19:00:00,75.7,43.0,29.97,SE,141,0.0,2.0,31,0.00,,,0.00,weatherlink.com 1.10,2013-05-06 23:00:00,
2013-05-06 19:14:00,74.9,44.0,29.97,ESE,104,0.0,4.0,33,0.00,,,0.00,weatherlink.com 1.10,2013-05-06 23:14:00,
2013-05-06 19:29:00,74.3,44.0,29.97,NE,46,0.0,1.0,34,0.00,,,0.00,weatherlink.com 1.10,2013-05-06 23:29:00,
2013-05-06 19:44:00,73.3,45.0,29.97,SE,134,0.0,1.0,37,0.00,,,0.00,weatherlink.com 1.10,2013-05-06 23:44:00,
2013-05-06 19:59:00,72.4,45.0,29.97,West,269,0.0,1.0,38,0.00,,,0.00,weatherlink.com 1.10,2013-05-06 23:59:00,
2013-05-06 20:14:00,71.3,46.0,29.98,West,274,0.0,1.0,40,0.00,,,0.00,weatherlink.com 1.10,2013-05-07 00:14:00,
2013-05-06 20:29:00,70.1,46.0,29.98,West,274,0.0,0.0,42,0.00,,,0.00,weatherlink.com 1.10,2013-05-07 00:29:00,
2013-05-06 20:44:00,68.8,46.0,29.99,West,274,0.0,0.0,44,0.00,,,0.00,weatherlink.com 1.10,2013-05-07 00:44:00,
2013-05-06 20:59:00,68.6,46.0,29.99,ESE,113,0.0,2.0,44,0.00,,,0.00,weatherlink.com 1.10,2013-05-07 00:59:00,
2013-05-06 21:14:00,68.2,46.0,30.00,ESE,110,0.0,0.0,46,0.00,,,0.00,weatherlink.com 1.10,2013-05-07 01:14:00,
2013-05-06 21:29:00,67.1,47.0,30.00,ESE,110,0.0,0.0,48,0.00,,,0.00,weatherlink.com 1.10,2013-05-07 01:29:00,
2013-05-06 21:44:00,67.5,48.0,30.01,SE,136,0.0,2.0,49,0.00,,,0.00,weatherlink.com 1.10,2013-05-07 01:44:00,
2013-05-06 21:59:00,66.1,48.0,30.01,ESE,119,0.0,0.0,52,0.00,,,0.00,weatherlink.com 1.10,2013-05-07 01:59:00,
2013-05-06 22:15:00,64.7,48.0,30.02,ESE,119,0.0,0.0,55,0.00,,,0.00,weatherlink.com 1.10,2013-05-07 02:15:00,
2013-05-06 22:29:00,63.1,48.0,30.02,ESE,118,0.0,0.0,59,0.00,,,0.00,weatherlink.com 1.10,2013-05-07 02:29:00,
2013-05-06 22:44:00,61.2,48.0,30.02,ESE,118,0.0,0.0,62,0.00,,,0.00,weatherlink.com 1.10,2013-05-07 02:44:00,
2013-05-06 22:59:00,60.0,48.0,30.02,ESE,118,0.0,0.0,65,0.00,,,0.00,weatherlink.com 1.10,2013-05-07 02:59:00,
2013-05-06 23:14:00,58.6,48.0,30.02,ESE,118,0.0,0.0,68,0.00,,,0.00,weatherlink.com 1.10,2013-05-07 03:14:00,
2013-05-06 23:29:00,57.8,48.0,30.02,ESE,118,0.0,0.0,70,0.00,,,0.00,weatherlink.com 1.10,2013-05-07 03:29:00,
2013-05-06 23:44:00,56.8,48.0,30.02,ESE,118,0.0,0.0,72,0.00,,,0.00,weatherlink.com 1.10,2013-05-07 03:44:00,
2013-05-06 23:59:00,56.0,47.0,30.02,ESE,118,0.0,0.0,73,0.00,,,0.00,weatherlink.com 1.10,2013-05-07 03:59:00,